This is the latest recevied weather packets stored in our database for station/object OK3MS-5. If no packets are shown the sender has not sent any weather packets the latest 10 day(s).
| Time | Temp. | Humidity | Pressure | Rain* | Wind** | Luminosity | Snow |
|---|---|---|---|---|---|---|---|
| 1777286105 | 14.44° C | 34% | 1021 hPa | 0 mm | - | 733 W/m² | - |
| 1777285804 | 14.44° C | 35% | 1021.1 hPa | 0 mm | - | 730 W/m² | - |
| 1777285504 | 13.89° C | 36% | 1021.1 hPa | 0 mm | - | 724 W/m² | - |
| 1777285207 | 13.33° C | 38% | 1021.4 hPa | 0 mm | - | 717 W/m² | - |
| 1777284904 | 13.33° C | 38% | 1021.4 hPa | 0 mm | - | 714 W/m² | - |
| 1777284605 | 12.78° C | 40% | 1021.4 hPa | 0 mm | - | 708 W/m² | - |
| 1777284307 | 13.89° C | 40% | 1021.3 hPa | 0 mm | - | 703 W/m² | - |
| 1777284005 | 13.33° C | 37% | 1021.4 hPa | 0 mm | - | 702 W/m² | - |
| 1777283705 | 13.89° C | 39% | 1021.4 hPa | 0 mm | - | 694 W/m² | - |
| 1777283404 | 13.33° C | 38% | 1021.5 hPa | 0 mm | - | 690 W/m² | - |
| 1777283105 | 13.33° C | 38% | 1021.6 hPa | 0 mm | - | 687 W/m² | - |
| 1777282806 | 12.78° C | 39% | 1021.8 hPa | 0 mm | - | 684 W/m² | - |
| 1777282505 | 12.78° C | 39% | 1021.8 hPa | 0 mm | - | 679 W/m² | - |
| 1777282205 | 12.78° C | 41% | 1021.8 hPa | 0 mm | - | 672 W/m² | - |
| 1777281903 | 12.78° C | 41% | 1021.8 hPa | 0 mm | - | 666 W/m² | - |
| 1777281605 | 12.22° C | 40% | 1021.9 hPa | 0 mm | - | 658 W/m² | - |
| 1777281304 | 12.22° C | 41% | 1022 hPa | 0 mm | - | 652 W/m² | - |
| 1777281004 | 12.22° C | 41% | 1022.1 hPa | 0 mm | - | 645 W/m² | - |
| 1777280704 | 12.22° C | 41% | 1022.2 hPa | 0 mm | - | 638 W/m² | - |
| 1777280402 | 12.22° C | 41% | 1022.3 hPa | 0 mm | - | 631 W/m² | - |
| 1777280105 | 12.22° C | 39% | 1022.2 hPa | 0 mm | - | 624 W/m² | - |
| 1777279805 | 11.67° C | 39% | 1022.4 hPa | 0 mm | - | 610 W/m² | - |
| 1777279504 | 12.22° C | 40% | 1022.2 hPa | 0 mm | - | 600 W/m² | - |
| 1777279206 | 12.22° C | 41% | 1022.3 hPa | 0 mm | - | 592 W/m² | - |
| 1777278903 | 12.22° C | 40% | 1022.3 hPa | 0 mm | - | 582 W/m² | - |
* Rain latest hour (hover to see other rain measurements)
** Current wind speed in m/s (hover to see current wind gust speed)